Time;durP1;ratioP1;P1;durP2;ratioP2;P2;SDS_P1;SDS_P2;PMS_P1;PMS_P2;Temp;Humidity;BMP_temperature;BMP_pressure;BME280_temperature;BME280_humidity;BME280_pressure;Samples;Min_cycle;Max_cycle;Signal;HPM_P1;HPM_P2
2022/10/24 00:02:12;;;;;;;8.32;2.42;;;;;;;;;;4989201;28;20266;-65
2022/10/24 00:04:38;;;;;;;8.00;2.90;;;;;;;;;;4995124;28;20479;-68
2022/10/24 00:07:04;;;;;;;11.73;3.22;;;;;;;;;;4994760;28;20263;-65
2022/10/24 00:09:29;;;;;;;11.20;3.30;;;;;;;;;;4994022;28;20320;-65
2022/10/24 00:11:54;;;;;;;9.65;2.83;;;;;;;;;;4994914;28;20299;-65
2022/10/24 00:14:19;;;;;;;9.20;2.85;;;;;;;;;;4993477;28;20213;-65
2022/10/24 00:16:45;;;;;;;9.00;2.50;;;;;;;;;;4994567;28;20213;-65
2022/10/24 00:19:10;;;;;;;8.38;2.80;;;;;;;;;;4988899;28;20212;-65
2022/10/24 00:21:35;;;;;;;6.93;2.40;;;;;;;;;;4988074;28;20513;-66
2022/10/24 00:24:00;;;;;;;5.10;2.22;;;;;;;;;;4988297;28;20295;-65
2022/10/24 00:26:26;;;;;;;6.82;2.20;;;;;;;;;;4997102;28;20209;-65
2022/10/24 00:28:51;;;;;;;6.35;2.47;;;;;;;;;;4997536;28;20524;-65
2022/10/24 00:31:17;;;;;;;11.35;2.38;;;;;;;;;;4998684;28;20228;-65
2022/10/24 00:33:42;;;;;;;8.85;2.50;;;;;;;;;;4998646;28;20227;-65
2022/10/24 00:36:10;;;;;;;9.93;2.63;;;;;;;;;;4995617;28;20220;-65
2022/10/24 00:38:35;;;;;;;6.20;2.15;;;;;;;;;;4997987;28;20235;-65
2022/10/24 00:41:00;;;;;;;7.85;2.13;;;;;;;;;;4993739;28;20331;-65
2022/10/24 00:43:25;;;;;;;9.10;2.10;;;;;;;;;;4991428;28;20220;-65
2022/10/24 00:45:54;;;;;;;6.97;1.83;;;;;;;;;;4991601;28;20250;-65
2022/10/24 00:48:21;;;;;;;9.43;2.42;;;;;;;;;;4995436;28;20228;-65
2022/10/24 00:50:46;;;;;;;9.35;1.98;;;;;;;;;;4981664;28;20227;-65
2022/10/24 00:53:11;;;;;;;7.50;2.38;;;;;;;;;;4997186;28;20220;-65
2022/10/24 00:55:36;;;;;;;7.07;1.98;;;;;;;;;;4997567;28;20234;-65
2022/10/24 00:58:04;;;;;;;9.05;2.25;;;;;;;;;;4996604;28;20239;-66
2022/10/24 01:00:31;;;;;;;6.95;2.15;;;;;;;;;;4997522;28;20294;-65
2022/10/24 01:02:56;;;;;;;5.93;1.83;;;;;;;;;;4995698;28;20221;-65
2022/10/24 01:05:21;;;;;;;10.13;2.65;;;;;;;;;;4990633;28;20470;-65
2022/10/24 01:07:52;;;;;;;8.32;1.92;;;;;;;;;;4991207;28;20490;-65
2022/10/24 01:10:19;;;;;;;7.28;1.80;;;;;;;;;;4993445;28;20222;-65
2022/10/24 01:12:54;;;;;;;10.02;1.73;;;;;;;;;;4997092;28;20300;-65
2022/10/24 01:15:29;;;;;;;4.80;2.33;;;;;;;;;;4990246;28;20200;-65
2022/10/24 01:17:59;;;;;;;8.27;1.65;;;;;;;;;;4997212;28;20219;-65
2022/10/24 01:20:34;;;;;;;7.00;1.95;;;;;;;;;;4995781;28;20227;-66
2022/10/24 01:23:03;;;;;;;7.88;2.92;;;;;;;;;;4996341;28;20226;-65
2022/10/24 01:25:38;;;;;;;5.85;1.70;;;;;;;;;;4993742;28;20265;-65
2022/10/24 01:28:08;;;;;;;9.00;1.65;;;;;;;;;;4990962;28;20307;-65
2022/10/24 01:30:36;;;;;;;8.57;1.95;;;;;;;;;;4989448;28;20212;-65
2022/10/24 01:33:02;;;;;;;8.27;1.80;;;;;;;;;;4990803;28;20204;-65
2022/10/24 01:35:34;;;;;;;6.63;1.83;;;;;;;;;;4997549;28;20235;-65
2022/10/24 01:38:21;;;;;;;9.10;1.77;;;;;;;;;;4996408;28;20208;-65
2022/10/24 01:40:49;;;;;;;6.35;1.70;;;;;;;;;;4994913;28;20216;-65
2022/10/24 01:43:15;;;;;;;5.65;2.20;;;;;;;;;;4995864;28;20319;-65
2022/10/24 01:45:41;;;;;;;5.22;1.55;;;;;;;;;;4995678;28;20759;-65
2022/10/24 01:48:06;;;;;;;7.07;2.00;;;;;;;;;;4993834;28;20223;-65
2022/10/24 01:50:33;;;;;;;7.10;2.15;;;;;;;;;;4991058;28;20316;-65
2022/10/24 01:52:58;;;;;;;10.00;2.40;;;;;;;;;;4972592;28;20499;-65
2022/10/24 01:55:23;;;;;;;7.47;2.10;;;;;;;;;;4991299;28;20282;-65
2022/10/24 01:57:48;;;;;;;6.10;2.00;;;;;;;;;;4994129;28;20270;-65
2022/10/24 02:00:15;;;;;;;6.82;1.83;;;;;;;;;;4996111;28;20716;-65
2022/10/24 02:02:41;;;;;;;12.57;2.17;;;;;;;;;;4995189;28;20228;-65
2022/10/24 02:05:11;;;;;;;6.90;2.00;;;;;;;;;;4996603;28;20533;-65
2022/10/24 02:07:36;;;;;;;5.03;1.88;;;;;;;;;;4996604;28;20295;-65
2022/10/24 02:10:04;;;;;;;6.57;1.95;;;;;;;;;;4996264;28;20600;-64
2022/10/24 02:12:29;;;;;;;8.68;2.53;;;;;;;;;;4990555;28;20522;-65
2022/10/24 02:14:58;;;;;;;8.93;2.47;;;;;;;;;;4987766;28;20563;-65
2022/10/24 02:17:23;;;;;;;8.02;1.98;;;;;;;;;;4990322;28;20376;-65
2022/10/24 02:19:49;;;;;;;7.63;2.10;;;;;;;;;;4996170;28;20224;-65
2022/10/24 02:22:18;;;;;;;8.68;2.40;;;;;;;;;;4995809;28;20239;-65
2022/10/24 02:24:46;;;;;;;7.80;2.13;;;;;;;;;;4996591;28;20204;-65
2022/10/24 02:27:13;;;;;;;7.10;2.40;;;;;;;;;;4994618;28;20743;-65
2022/10/24 02:29:43;;;;;;;7.88;2.35;;;;;;;;;;5001481;28;20201;-65
2022/10/24 02:32:10;;;;;;;7.25;2.10;;;;;;;;;;5021099;28;20204;-65
2022/10/24 02:34:35;;;;;;;8.23;1.98;;;;;;;;;;5025168;28;20274;-65
2022/10/24 02:37:00;;;;;;;6.40;2.00;;;;;;;;;;5025203;28;20690;-65
2022/10/24 02:39:26;;;;;;;6.40;1.95;;;;;;;;;;5015605;28;20209;-65
2022/10/24 02:41:51;;;;;;;6.90;2.40;;;;;;;;;;5004585;28;20922;-65
2022/10/24 02:44:16;;;;;;;6.85;2.08;;;;;;;;;;5004235;28;20246;-65
2022/10/24 02:46:42;;;;;;;6.97;2.00;;;;;;;;;;5004644;28;20623;-65
2022/10/24 02:49:07;;;;;;;6.30;1.70;;;;;;;;;;5003097;28;20958;-65
2022/10/24 02:51:34;;;;;;;7.60;1.83;;;;;;;;;;5006025;28;20200;-65
2022/10/24 02:53:59;;;;;;;8.75;1.83;;;;;;;;;;5004723;28;20266;-65
2022/10/24 02:56:25;;;;;;;8.25;1.90;;;;;;;;;;5005677;28;20675;-65
2022/10/24 02:58:50;;;;;;;7.82;2.00;;;;;;;;;;5007135;28;20208;-65
2022/10/24 03:01:15;;;;;;;7.78;1.90;;;;;;;;;;5005995;28;20232;-65
2022/10/24 03:03:40;;;;;;;8.70;1.75;;;;;;;;;;5006200;28;20208;-65
2022/10/24 03:06:06;;;;;;;4.53;1.70;;;;;;;;;;5006415;28;20260;-65
2022/10/24 03:08:31;;;;;;;10.45;2.08;;;;;;;;;;5005523;28;20235;-65
2022/10/24 03:10:56;;;;;;;8.80;1.67;;;;;;;;;;5006379;28;20366;-65
2022/10/24 03:13:22;;;;;;;6.45;1.73;;;;;;;;;;5005786;28;20219;-65
2022/10/24 03:15:47;;;;;;;7.82;1.80;;;;;;;;;;5006085;28;20776;-66
2022/10/24 03:18:12;;;;;;;6.00;1.38;;;;;;;;;;5004972;28;20215;-65
2022/10/24 03:20:37;;;;;;;4.97;1.48;;;;;;;;;;5005598;28;20228;-65
2022/10/24 03:23:03;;;;;;;6.85;1.70;;;;;;;;;;5004852;28;20216;-65
2022/10/24 03:25:28;;;;;;;9.40;2.10;;;;;;;;;;5004813;28;20211;-65
2022/10/24 03:27:53;;;;;;;5.20;1.60;;;;;;;;;;5005405;28;20742;-65
2022/10/24 03:30:19;;;;;;;4.28;1.40;;;;;;;;;;5004863;28;20204;-65
2022/10/24 03:32:44;;;;;;;7.35;2.08;;;;;;;;;;5004835;28;20227;-65
2022/10/24 03:35:09;;;;;;;7.70;1.67;;;;;;;;;;5004854;28;20212;-65
2022/10/24 03:37:34;;;;;;;10.93;1.65;;;;;;;;;;5005433;28;20219;-65
2022/10/24 03:40:00;;;;;;;5.50;1.30;;;;;;;;;;5004709;28;20597;-65
2022/10/24 03:42:25;;;;;;;6.15;2.00;;;;;;;;;;4992549;28;20233;-64
2022/10/24 03:44:50;;;;;;;8.82;1.40;;;;;;;;;;4994476;28;20798;-65
2022/10/24 03:47:15;;;;;;;5.32;1.10;;;;;;;;;;4987954;28;20231;-65
2022/10/24 03:49:41;;;;;;;4.63;1.20;;;;;;;;;;4989009;28;20200;-65
2022/10/24 03:52:06;;;;;;;5.00;1.20;;;;;;;;;;4988426;28;20520;-65
2022/10/24 03:54:31;;;;;;;3.95;1.20;;;;;;;;;;4994013;28;20212;-65
2022/10/24 03:56:56;;;;;;;7.47;1.40;;;;;;;;;;4994988;28;20634;-64
2022/10/24 03:59:22;;;;;;;8.07;1.52;;;;;;;;;;4994047;28;20313;-64
2022/10/24 04:01:47;;;;;;;8.18;1.63;;;;;;;;;;4998610;28;20252;-64
2022/10/24 04:04:13;;;;;;;5.95;1.38;;;;;;;;;;4998260;28;20240;-63
2022/10/24 04:06:39;;;;;;;5.18;1.67;;;;;;;;;;4997727;28;20508;-63
2022/10/24 04:09:04;;;;;;;5.40;1.27;;;;;;;;;;4993897;28;20513;-63
2022/10/24 04:11:29;;;;;;;4.88;1.35;;;;;;;;;;4992236;28;20208;-63
2022/10/24 04:13:55;;;;;;;5.72;1.30;;;;;;;;;;4991586;28;20262;-63
2022/10/24 04:16:22;;;;;;;5.13;1.63;;;;;;;;;;4996034;28;20219;-63
2022/10/24 04:18:48;;;;;;;6.68;1.30;;;;;;;;;;4998637;28;20208;-63
2022/10/24 04:21:13;;;;;;;5.15;1.30;;;;;;;;;;4997908;28;20229;-64
2022/10/24 04:23:40;;;;;;;5.85;1.40;;;;;;;;;;4998990;28;20216;-63
2022/10/24 04:26:06;;;;;;;3.75;1.00;;;;;;;;;;4998153;28;20209;-63
2022/10/24 04:28:32;;;;;;;4.97;1.30;;;;;;;;;;4997514;28;20801;-63
2022/10/24 04:30:57;;;;;;;7.38;1.55;;;;;;;;;;4995554;28;20213;-63
2022/10/24 04:33:22;;;;;;;6.72;1.58;;;;;;;;;;4991803;28;20410;-63
2022/10/24 04:35:48;;;;;;;5.10;1.38;;;;;;;;;;4990747;28;20216;-63
2022/10/24 04:38:13;;;;;;;8.13;1.42;;;;;;;;;;4992579;28;20224;-63
2022/10/24 04:40:38;;;;;;;5.40;1.33;;;;;;;;;;4998333;28;20540;-63
2022/10/24 04:43:04;;;;;;;6.32;1.40;;;;;;;;;;4997109;28;20209;-63
2022/10/24 04:45:29;;;;;;;6.50;1.70;;;;;;;;;;4998090;28;20208;-63
2022/10/24 04:47:54;;;;;;;7.75;1.60;;;;;;;;;;4998101;28;20312;-63
2022/10/24 04:50:20;;;;;;;5.35;1.40;;;;;;;;;;4997268;28;20220;-64
2022/10/24 04:52:45;;;;;;;12.82;1.42;;;;;;;;;;4998011;28;20726;-63
2022/10/24 04:55:10;;;;;;;6.38;1.23;;;;;;;;;;4991785;28;20211;-63
2022/10/24 04:57:35;;;;;;;4.75;1.25;;;;;;;;;;4990540;28;20219;-63
2022/10/24 05:00:01;;;;;;;7.15;1.60;;;;;;;;;;4992127;28;20282;-62
2022/10/24 05:02:26;;;;;;;5.15;1.40;;;;;;;;;;4996981;28;20316;-63
2022/10/24 05:04:51;;;;;;;6.70;1.40;;;;;;;;;;4996598;28;20214;-63
2022/10/24 05:07:19;;;;;;;5.35;1.25;;;;;;;;;;4996289;28;20212;-63
2022/10/24 05:09:44;;;;;;;9.15;1.90;;;;;;;;;;4996595;28;20331;-63
2022/10/24 05:12:10;;;;;;;5.03;1.38;;;;;;;;;;4997330;28;20228;-63
2022/10/24 05:14:35;;;;;;;7.30;1.27;;;;;;;;;;4997641;28;20654;-63
2022/10/24 05:17:00;;;;;;;8.02;1.80;;;;;;;;;;4992255;28;20220;-63
2022/10/24 05:19:25;;;;;;;6.68;2.17;;;;;;;;;;4990785;28;20618;-63
2022/10/24 05:21:51;;;;;;;6.57;1.48;;;;;;;;;;4990575;28;20283;-63
2022/10/24 05:24:16;;;;;;;6.90;1.50;;;;;;;;;;4993342;28;20216;-63
2022/10/24 05:26:41;;;;;;;6.47;1.58;;;;;;;;;;4997523;28;20212;-63
2022/10/24 05:29:06;;;;;;;10.18;2.05;;;;;;;;;;4996322;28;20777;-63
2022/10/24 05:31:32;;;;;;;5.43;1.15;;;;;;;;;;4995656;28;20213;-63
2022/10/24 05:33:58;;;;;;;8.13;1.70;;;;;;;;;;4996740;28;20784;-63
2022/10/24 05:36:23;;;;;;;7.40;1.35;;;;;;;;;;4996144;28;20235;-63
2022/10/24 05:38:48;;;;;;;7.57;1.90;;;;;;;;;;4993883;28;20570;-63
2022/10/24 05:41:14;;;;;;;6.20;1.45;;;;;;;;;;4989886;28;21496;-63
2022/10/24 05:43:39;;;;;;;6.25;1.17;;;;;;;;;;4990442;28;20324;-63
2022/10/24 05:46:06;;;;;;;4.38;1.05;;;;;;;;;;4991065;28;20894;-63
2022/10/24 05:48:31;;;;;;;5.10;1.10;;;;;;;;;;4996688;28;20223;-63
2022/10/24 05:50:56;;;;;;;9.05;1.63;;;;;;;;;;4996708;28;20208;-63
2022/10/24 05:53:22;;;;;;;6.28;1.27;;;;;;;;;;4995782;28;20216;-63
2022/10/24 05:55:47;;;;;;;7.45;1.55;;;;;;;;;;4996330;28;20205;-63
2022/10/24 05:58:12;;;;;;;5.82;1.00;;;;;;;;;;4996768;28;20225;-63
2022/10/24 06:00:37;;;;;;;8.57;1.38;;;;;;;;;;4995793;28;20225;-63
2022/10/24 06:03:03;;;;;;;5.68;1.20;;;;;;;;;;4989317;28;20243;-63
2022/10/24 06:05:28;;;;;;;6.75;1.20;;;;;;;;;;4993660;28;20244;-64
2022/10/24 06:07:53;;;;;;;8.10;1.45;;;;;;;;;;4993209;28;20533;-63
2022/10/24 06:10:19;;;;;;;7.32;1.50;;;;;;;;;;4999330;28;20447;-65
2022/10/24 06:12:44;;;;;;;5.50;1.45;;;;;;;;;;5001036;28;20434;-64
2022/10/24 06:15:10;;;;;;;9.93;1.60;;;;;;;;;;4999390;28;20580;-66
2022/10/24 06:17:35;;;;;;;8.05;1.55;;;;;;;;;;4983502;28;20415;-65
2022/10/24 06:20:01;;;;;;;5.88;1.30;;;;;;;;;;4998442;28;20227;-63
2022/10/24 06:22:28;;;;;;;7.07;1.20;;;;;;;;;;4998473;28;20230;-65
2022/10/24 06:24:53;;;;;;;6.47;2.03;;;;;;;;;;4995006;28;20219;-64
2022/10/24 06:27:19;;;;;;;9.95;1.65;;;;;;;;;;4990537;28;20212;-64
2022/10/24 06:29:44;;;;;;;7.32;1.48;;;;;;;;;;4992006;28;20200;-64
2022/10/24 06:32:09;;;;;;;7.60;1.45;;;;;;;;;;4996669;28;20204;-64
2022/10/24 06:34:35;;;;;;;7.85;1.60;;;;;;;;;;4999097;28;20293;-64
2022/10/24 06:37:00;;;;;;;6.05;1.30;;;;;;;;;;4999231;28;20204;-64
2022/10/24 06:39:25;;;;;;;7.00;1.30;;;;;;;;;;4999226;28;20209;-64
2022/10/24 06:41:50;;;;;;;11.02;1.58;;;;;;;;;;4998449;28;20583;-64
2022/10/24 06:44:16;;;;;;;6.78;1.48;;;;;;;;;;4999252;28;20205;-64
2022/10/24 06:46:41;;;;;;;9.55;1.42;;;;;;;;;;4996359;28;20220;-64
2022/10/24 06:49:06;;;;;;;8.20;1.50;;;;;;;;;;4990626;28;20699;-64
2022/10/24 06:51:32;;;;;;;8.75;1.80;;;;;;;;;;4991065;28;20216;-63
2022/10/24 06:53:57;;;;;;;8.60;1.20;;;;;;;;;;4994250;28;20698;-64
2022/10/24 06:56:22;;;;;;;10.10;1.48;;;;;;;;;;4995951;28;20591;-62
2022/10/24 06:58:48;;;;;;;10.60;1.77;;;;;;;;;;4999444;28;20652;-63
2022/10/24 07:01:14;;;;;;;7.45;1.48;;;;;;;;;;5001459;28;20753;-63
2022/10/24 07:03:39;;;;;;;5.30;1.27;;;;;;;;;;5024259;28;20259;-63
2022/10/24 07:06:06;;;;;;;8.07;1.50;;;;;;;;;;5009466;28;20486;-63
2022/10/24 07:08:31;;;;;;;8.38;1.45;;;;;;;;;;5004910;28;20221;-63
2022/10/24 07:10:56;;;;;;;8.23;1.75;;;;;;;;;;5008004;28;20213;-63
2022/10/24 07:13:21;;;;;;;10.45;1.77;;;;;;;;;;5007577;28;20231;-64
2022/10/24 07:15:47;;;;;;;7.88;1.35;;;;;;;;;;5007254;28;20216;-64
2022/10/24 07:18:13;;;;;;;7.25;1.77;;;;;;;;;;5005616;28;20611;-64
2022/10/24 07:20:38;;;;;;;15.23;2.35;;;;;;;;;;5006885;28;20215;-65
2022/10/24 07:23:03;;;;;;;12.75;1.90;;;;;;;;;;5006369;28;20208;-65
2022/10/24 07:25:28;;;;;;;8.45;1.55;;;;;;;;;;5007128;28;20209;-65
2022/10/24 07:27:54;;;;;;;9.40;2.00;;;;;;;;;;5007487;28;20235;-64
2022/10/24 07:30:19;;;;;;;8.27;2.03;;;;;;;;;;5007202;28;22522;-64
2022/10/24 07:32:45;;;;;;;9.63;1.55;;;;;;;;;;5007985;28;20577;-64
2022/10/24 07:35:11;;;;;;;9.35;1.50;;;;;;;;;;5007369;28;20232;-64
2022/10/24 07:37:36;;;;;;;11.00;1.70;;;;;;;;;;5007224;28;20223;-64
2022/10/24 07:40:01;;;;;;;7.22;1.50;;;;;;;;;;5002245;28;20208;-63
2022/10/24 07:42:27;;;;;;;10.80;1.48;;;;;;;;;;5008477;28;20216;-64
2022/10/24 07:44:52;;;;;;;10.50;1.52;;;;;;;;;;5007172;28;20725;-64
2022/10/24 07:47:17;;;;;;;6.63;1.52;;;;;;;;;;5007090;28;20292;-64
2022/10/24 07:49:43;;;;;;;11.23;2.17;;;;;;;;;;5006952;28;20201;-64
2022/10/24 07:52:08;;;;;;;7.80;1.50;;;;;;;;;;5004403;28;20212;-64
2022/10/24 07:54:33;;;;;;;9.68;1.92;;;;;;;;;;5006641;28;20212;-64
2022/10/24 07:56:58;;;;;;;6.15;1.40;;;;;;;;;;5006567;28;20689;-65
2022/10/24 07:59:24;;;;;;;9.25;1.42;;;;;;;;;;5005665;28;20216;-64
2022/10/24 08:01:49;;;;;;;8.40;1.50;;;;;;;;;;5007000;28;20256;-64
2022/10/24 08:04:14;;;;;;;8.68;1.50;;;;;;;;;;5006514;28;20263;-64
2022/10/24 08:06:41;;;;;;;7.95;1.45;;;;;;;;;;5005453;28;20343;-64
2022/10/24 08:09:06;;;;;;;9.98;1.52;;;;;;;;;;5006635;28;20731;-64
2022/10/24 08:11:32;;;;;;;8.55;1.88;;;;;;;;;;5006817;28;20243;-64
2022/10/24 08:13:57;;;;;;;8.55;1.70;;;;;;;;;;5006102;28;20209;-64
2022/10/24 08:16:22;;;;;;;10.48;1.50;;;;;;;;;;5006435;28;20559;-64
2022/10/24 08:18:48;;;;;;;7.28;1.20;;;;;;;;;;5006780;28;20227;-64
2022/10/24 08:21:14;;;;;;;7.05;1.50;;;;;;;;;;5005950;28;20640;-64
2022/10/24 08:23:40;;;;;;;10.75;1.55;;;;;;;;;;5007178;28;20219;-63
2022/10/24 08:26:06;;;;;;;8.30;1.50;;;;;;;;;;5005799;28;20593;-65
2022/10/24 08:28:31;;;;;;;9.32;1.60;;;;;;;;;;5005211;28;20216;-65
2022/10/24 08:30:58;;;;;;;9.93;1.45;;;;;;;;;;5006407;28;20212;-64
2022/10/24 08:33:24;;;;;;;6.80;1.30;;;;;;;;;;5016257;28;20215;-64
2022/10/24 08:35:49;;;;;;;9.18;1.65;;;;;;;;;;5008157;28;20217;-64
2022/10/24 08:38:14;;;;;;;10.40;1.75;;;;;;;;;;5006172;28;20209;-64
2022/10/24 08:40:40;;;;;;;10.77;1.63;;;;;;;;;;5005402;28;20568;-64
2022/10/24 08:43:05;;;;;;;11.15;1.30;;;;;;;;;;5005893;28;20220;-64
2022/10/24 08:45:34;;;;;;;8.23;1.30;;;;;;;;;;5006630;28;20311;-64
2022/10/24 08:47:59;;;;;;;9.98;1.88;;;;;;;;;;5007700;28;20212;-64
2022/10/24 08:50:27;;;;;;;7.20;1.42;;;;;;;;;;5009198;28;20289;-64
2022/10/24 08:53:03;;;;;;;7.57;1.30;;;;;;;;;;5008735;28;20213;-64
2022/10/24 08:55:31;;;;;;;10.00;1.63;;;;;;;;;;5008603;28;20239;-64
2022/10/24 08:57:57;;;;;;;8.00;1.30;;;;;;;;;;5008666;28;20213;-64
2022/10/24 09:00:23;;;;;;;8.20;1.50;;;;;;;;;;5008259;28;20220;-64
2022/10/24 09:02:58;;;;;;;7.15;1.67;;;;;;;;;;5007602;28;20585;-64
2022/10/24 09:05:35;;;;;;;7.78;1.45;;;;;;;;;;5007727;28;20581;-64
2022/10/24 09:08:04;;;;;;;8.55;1.33;;;;;;;;;;5009684;28;20212;-63
2022/10/24 09:10:37;;;;;;;9.27;1.48;;;;;;;;;;5007619;28;20567;-64
2022/10/24 09:13:07;;;;;;;7.93;1.23;;;;;;;;;;5009435;28;20218;-64
2022/10/24 09:15:32;;;;;;;8.38;1.27;;;;;;;;;;5008773;28;20738;-64
2022/10/24 09:17:57;;;;;;;8.75;1.38;;;;;;;;;;5009297;28;20251;-64
2022/10/24 09:20:24;;;;;;;9.65;1.50;;;;;;;;;;5007915;28;20208;-64
2022/10/24 09:22:50;;;;;;;7.90;1.67;;;;;;;;;;5009314;28;20219;-64
2022/10/24 09:25:15;;;;;;;7.85;1.25;;;;;;;;;;5009123;28;20212;-64
2022/10/24 09:27:41;;;;;;;11.10;1.75;;;;;;;;;;5009133;28;20281;-64
2022/10/24 09:30:07;;;;;;;8.23;1.55;;;;;;;;;;5008147;28;20582;-64
2022/10/24 09:32:32;;;;;;;9.60;1.35;;;;;;;;;;5009309;28;20211;-64
2022/10/24 09:34:59;;;;;;;6.53;1.40;;;;;;;;;;5009341;28;20695;-64
2022/10/24 09:37:28;;;;;;;8.65;1.35;;;;;;;;;;5006563;28;20204;-64
2022/10/24 09:40:03;;;;;;;7.20;1.50;;;;;;;;;;5009111;28;20513;-64
2022/10/24 09:42:29;;;;;;;5.38;1.27;;;;;;;;;;5008926;28;20315;-64
2022/10/24 09:44:54;;;;;;;7.38;1.30;;;;;;;;;;5007511;28;20299;-64
2022/10/24 09:47:22;;;;;;;5.68;1.55;;;;;;;;;;5007399;28;20354;-66
2022/10/24 09:49:47;;;;;;;6.60;0.90;;;;;;;;;;5007385;28;20201;-65
2022/10/24 09:52:13;;;;;;;6.22;1.10;;;;;;;;;;5007930;28;20722;-64
2022/10/24 09:54:38;;;;;;;4.40;1.00;;;;;;;;;;5008478;28;20295;-65
2022/10/24 09:57:09;;;;;;;7.63;1.20;;;;;;;;;;5007509;28;20216;-64
2022/10/24 09:59:36;;;;;;;7.15;1.20;;;;;;;;;;5007910;28;20216;-64
2022/10/24 10:02:12;;;;;;;5.93;1.25;;;;;;;;;;5008120;28;20243;-65
2022/10/24 10:04:37;;;;;;;7.07;1.33;;;;;;;;;;5008903;28;20350;-65
2022/10/24 10:07:08;;;;;;;6.18;1.27;;;;;;;;;;5007689;28;20311;-64
2022/10/24 10:09:34;;;;;;;7.38;1.27;;;;;;;;;;5009688;28;20212;-65
2022/10/24 10:11:59;;;;;;;9.07;1.85;;;;;;;;;;5008065;28;20220;-64
2022/10/24 10:14:25;;;;;;;6.38;0.95;;;;;;;;;;5007813;28;20582;-64
2022/10/24 10:17:00;;;;;;;7.60;1.50;;;;;;;;;;5007299;28;20215;-64
2022/10/24 10:19:26;;;;;;;7.45;1.10;;;;;;;;;;5006936;28;20671;-65
2022/10/24 10:21:51;;;;;;;4.43;1.00;;;;;;;;;;5006666;28;20227;-65
2022/10/24 10:24:24;;;;;;;7.18;1.30;;;;;;;;;;5007628;28;20271;-64
2022/10/24 10:26:50;;;;;;;6.53;1.10;;;;;;;;;;5007177;28;20573;-64
2022/10/24 10:29:15;;;;;;;5.75;1.10;;;;;;;;;;5007686;28;20209;-64
2022/10/24 10:31:42;;;;;;;5.80;1.20;;;;;;;;;;5013497;28;20220;-65
2022/10/24 10:34:09;;;;;;;7.72;1.38;;;;;;;;;;5012396;28;20212;-64
2022/10/24 10:36:36;;;;;;;4.60;1.00;;;;;;;;;;5013507;28;20216;-64
2022/10/24 10:39:09;;;;;;;6.07;1.10;;;;;;;;;;5013202;28;20204;-64
2022/10/24 10:41:44;;;;;;;5.38;1.10;;;;;;;;;;5011329;28;20224;-64
2022/10/24 10:44:14;;;;;;;9.43;1.20;;;;;;;;;;5013138;28;20227;-64
2022/10/24 10:46:47;;;;;;;6.43;1.00;;;;;;;;;;5012189;28;20659;-65
2022/10/24 10:49:12;;;;;;;6.75;1.40;;;;;;;;;;4992762;28;20231;-64
2022/10/24 10:51:43;;;;;;;5.60;1.30;;;;;;;;;;4993892;28;20216;-64
2022/10/24 10:54:19;;;;;;;10.00;1.38;;;;;;;;;;4992213;28;20622;-64
2022/10/24 10:56:47;;;;;;;7.65;1.30;;;;;;;;;;4991852;28;20221;-65
2022/10/24 10:59:28;;;;;;;9.13;1.15;;;;;;;;;;4993005;28;20247;-64
2022/10/24 11:01:56;;;;;;;6.63;0.93;;;;;;;;;;4991515;28;20225;-64
2022/10/24 11:04:25;;;;;;;4.72;0.73;;;;;;;;;;4993219;28;20295;-65
2022/10/24 11:06:50;;;;;;;9.93;1.35;;;;;;;;;;5001551;28;20224;-65
2022/10/24 11:09:15;;;;;;;6.07;1.05;;;;;;;;;;5008018;28;20220;-65
2022/10/24 11:11:41;;;;;;;7.75;1.05;;;;;;;;;;5008341;28;20955;-65
2022/10/24 11:14:26;;;;;;;3.65;0.77;;;;;;;;;;5007433;28;20216;-65
2022/10/24 11:16:52;;;;;;;7.78;1.20;;;;;;;;;;5002461;28;20221;-65
2022/10/24 11:19:20;;;;;;;6.90;1.25;;;;;;;;;;4986811;28;20722;-65
2022/10/24 11:21:46;;;;;;;6.78;1.08;;;;;;;;;;5027805;28;20282;-67
2022/10/24 11:24:13;;;;;;;5.18;1.10;;;;;;;;;;5025543;28;20247;-65
2022/10/24 11:26:41;;;;;;;5.60;1.00;;;;;;;;;;5027155;28;20253;-64
2022/10/24 11:29:10;;;;;;;6.90;1.25;;;;;;;;;;5024722;28;20873;-64
2022/10/24 11:31:37;;;;;;;7.60;1.00;;;;;;;;;;5025200;28;20228;-64
2022/10/24 11:34:05;;;;;;;7.43;1.25;;;;;;;;;;5021412;28;20737;-64
2022/10/24 11:36:32;;;;;;;6.28;1.10;;;;;;;;;;5004232;28;20223;-64
2022/10/24 11:39:00;;;;;;;6.53;1.42;;;;;;;;;;5006509;28;20204;-64
2022/10/24 11:41:28;;;;;;;4.70;1.10;;;;;;;;;;5004833;28;20220;-64
2022/10/24 11:43:54;;;;;;;8.18;1.10;;;;;;;;;;5003710;28;20208;-64
2022/10/24 11:46:21;;;;;;;5.80;1.00;;;;;;;;;;5004602;28;20211;-64
2022/10/24 11:48:54;;;;;;;7.40;1.17;;;;;;;;;;5005718;28;20261;-64
2022/10/24 11:51:21;;;;;;;4.95;1.08;;;;;;;;;;5004338;28;20239;-64
2022/10/24 11:53:48;;;;;;;5.43;1.13;;;;;;;;;;5004320;28;20201;-64
2022/10/24 11:56:29;;;;;;;7.28;1.05;;;;;;;;;;5004923;28;20208;-64
2022/10/24 11:59:01;;;;;;;5.65;1.10;;;;;;;;;;5006390;28;20228;-64
2022/10/24 12:01:39;;;;;;;3.28;0.90;;;;;;;;;;5006080;28;20231;-64
2022/10/24 12:04:16;;;;;;;9.93;1.10;;;;;;;;;;5007069;28;20208;-64
2022/10/24 12:06:44;;;;;;;7.40;0.93;;;;;;;;;;5009926;28;20715;-64
2022/10/24 12:09:15;;;;;;;6.43;1.33;;;;;;;;;;5006555;28;20227;-64
2022/10/24 12:11:44;;;;;;;7.68;1.35;;;;;;;;;;5006606;28;20235;-64
2022/10/24 12:14:09;;;;;;;3.83;1.08;;;;;;;;;;5004957;28;20306;-64
2022/10/24 12:16:44;;;;;;;7.65;1.33;;;;;;;;;;5006084;28;20244;-64
2022/10/24 12:19:11;;;;;;;5.57;1.15;;;;;;;;;;5005018;28;20215;-64
2022/10/24 12:21:38;;;;;;;7.60;1.20;;;;;;;;;;5006763;28;20223;-64
2022/10/24 12:24:03;;;;;;;6.10;1.20;;;;;;;;;;5000490;28;20227;-64
2022/10/24 12:26:29;;;;;;;6.88;1.13;;;;;;;;;;5010051;28;20243;-64
2022/10/24 12:28:55;;;;;;;5.40;1.20;;;;;;;;;;5027987;28;20216;-64
2022/10/24 12:31:21;;;;;;;6.55;1.10;;;;;;;;;;5014662;28;20279;-64
2022/10/24 12:33:46;;;;;;;6.50;1.15;;;;;;;;;;5019031;28;20875;-64
2022/10/24 12:36:12;;;;;;;7.55;1.60;;;;;;;;;;5011079;28;20227;-64
2022/10/24 12:38:37;;;;;;;5.22;1.23;;;;;;;;;;5011406;28;20219;-64
2022/10/24 12:41:08;;;;;;;6.57;1.13;;;;;;;;;;5011246;28;20220;-64
2022/10/24 12:43:38;;;;;;;5.55;1.20;;;;;;;;;;5012189;28;20243;-64
2022/10/24 12:46:13;;;;;;;6.97;1.50;;;;;;;;;;5029587;28;20267;-64
2022/10/24 12:48:39;;;;;;;6.07;1.40;;;;;;;;;;5013417;28;20265;-64
2022/10/24 12:51:23;;;;;;;9.23;1.40;;;;;;;;;;5006845;28;20775;-64
2022/10/24 12:54:00;;;;;;;5.00;1.30;;;;;;;;;;5008820;28;20212;-64
2022/10/24 12:56:26;;;;;;;7.05;1.42;;;;;;;;;;5007746;28;21013;-64
2022/10/24 12:59:14;;;;;;;8.13;1.40;;;;;;;;;;5014479;28;20311;-64
2022/10/24 13:01:39;;;;;;;6.50;1.23;;;;;;;;;;5013746;28;20278;-64
2022/10/24 13:04:29;;;;;;;6.97;1.10;;;;;;;;;;5009560;28;20244;-64
2022/10/24 13:07:02;;;;;;;9.10;1.85;;;;;;;;;;5009797;28;20220;-64
2022/10/24 13:09:37;;;;;;;8.75;1.33;;;;;;;;;;5007871;28;20204;-64
2022/10/24 13:12:12;;;;;;;7.50;1.42;;;;;;;;;;4989962;28;20495;-64
2022/10/24 13:14:41;;;;;;;7.47;1.33;;;;;;;;;;4991711;28;20262;-64
2022/10/24 13:17:09;;;;;;;6.68;1.42;;;;;;;;;;5008566;28;20212;-64
2022/10/24 13:19:34;;;;;;;8.93;1.70;;;;;;;;;;5009342;28;20223;-64
2022/10/24 13:22:00;;;;;;;7.13;1.30;;;;;;;;;;5007632;28;20240;-64
2022/10/24 13:24:27;;;;;;;7.85;1.45;;;;;;;;;;5009173;28;20223;-64
2022/10/24 13:26:54;;;;;;;8.82;1.88;;;;;;;;;;5009481;28;20232;-64
2022/10/24 13:29:20;;;;;;;7.00;1.38;;;;;;;;;;5008298;28;20362;-64
2022/10/24 13:31:47;;;;;;;7.70;1.60;;;;;;;;;;5009011;28;20213;-64
2022/10/24 13:34:21;;;;;;;5.53;1.42;;;;;;;;;;5007373;28;20228;-64
2022/10/24 13:36:47;;;;;;;7.55;1.30;;;;;;;;;;5008732;28;20218;-64
2022/10/24 13:39:16;;;;;;;7.90;1.30;;;;;;;;;;5008126;28;20219;-64
2022/10/24 13:41:43;;;;;;;6.85;1.48;;;;;;;;;;5009079;28;20302;-64
2022/10/24 13:44:17;;;;;;;7.22;1.50;;;;;;;;;;5006826;28;20220;-64
2022/10/24 13:46:45;;;;;;;11.45;1.67;;;;;;;;;;5008221;28;20208;-64
2022/10/24 13:49:14;;;;;;;8.10;1.48;;;;;;;;;;5008119;28;20213;-64
2022/10/24 13:51:42;;;;;;;8.48;1.40;;;;;;;;;;5006912;28;20215;-64
2022/10/24 13:54:10;;;;;;;8.13;1.85;;;;;;;;;;5011218;28;20294;-64
2022/10/24 13:56:35;;;;;;;7.57;1.40;;;;;;;;;;5014304;28;20212;-64
2022/10/24 13:59:01;;;;;;;6.07;1.30;;;;;;;;;;5027604;28;20212;-64
2022/10/24 14:01:27;;;;;;;8.45;1.50;;;;;;;;;;5028422;28;20219;-63
2022/10/24 14:03:52;;;;;;;10.32;1.80;;;;;;;;;;5025302;28;20223;-64
2022/10/24 14:06:23;;;;;;;7.78;1.33;;;;;;;;;;5016739;28;20220;-63
2022/10/24 14:08:49;;;;;;;11.82;2.25;;;;;;;;;;5028234;28;20675;-63
2022/10/24 14:11:17;;;;;;;8.40;1.50;;;;;;;;;;5028349;28;20223;-63
2022/10/24 14:13:44;;;;;;;7.90;1.30;;;;;;;;;;5028042;28;20208;-63
2022/10/24 14:16:09;;;;;;;7.03;1.40;;;;;;;;;;5013830;28;20506;-63
2022/10/24 14:18:36;;;;;;;8.13;1.70;;;;;;;;;;5006341;28;20718;-63
2022/10/24 14:21:03;;;;;;;7.43;1.50;;;;;;;;;;5007586;28;20611;-63
2022/10/24 14:23:29;;;;;;;8.50;1.30;;;;;;;;;;5008014;28;20217;-64
2022/10/24 14:25:56;;;;;;;8.98;1.73;;;;;;;;;;5008031;28;20679;-64
2022/10/24 14:28:23;;;;;;;8.13;1.95;;;;;;;;;;5008023;28;20636;-64
2022/10/24 14:30:52;;;;;;;8.75;1.73;;;;;;;;;;5007107;28;20283;-64
2022/10/24 14:33:19;;;;;;;9.93;1.65;;;;;;;;;;5006615;28;20216;-63
2022/10/24 14:35:44;;;;;;;7.00;1.40;;;;;;;;;;5008059;28;20577;-64
2022/10/24 14:38:11;;;;;;;6.78;1.58;;;;;;;;;;5007648;28;20291;-64
2022/10/24 14:40:36;;;;;;;7.13;1.40;;;;;;;;;;5006650;28;20236;-64